sensor_id;sensor_type;location;lat;lon;timestamp;P1;durP1;ratioP1;P2;durP2;ratioP2
12950;SDS011;6540;50.858;7.232;2022-12-18T00:00:04;5.23;;;3.93;;
12950;SDS011;6540;50.858;7.232;2022-12-18T00:02:30;9.17;;;5.93;;
12950;SDS011;6540;50.858;7.232;2022-12-18T00:04:56;6.57;;;4.67;;
12950;SDS011;6540;50.858;7.232;2022-12-18T00:07:24;9.27;;;4.20;;
12950;SDS011;6540;50.858;7.232;2022-12-18T00:09:49;5.20;;;4.07;;
12950;SDS011;6540;50.858;7.232;2022-12-18T00:12:15;9.23;;;3.77;;
12950;SDS011;6540;50.858;7.232;2022-12-18T00:14:40;4.97;;;3.97;;
12950;SDS011;6540;50.858;7.232;2022-12-18T00:17:08;4.87;;;3.97;;
12950;SDS011;6540;50.858;7.232;2022-12-18T00:19:34;8.90;;;4.37;;
12950;SDS011;6540;50.858;7.232;2022-12-18T00:21:59;9.10;;;5.43;;
12950;SDS011;6540;50.858;7.232;2022-12-18T00:24:24;12.10;;;4.83;;
12950;SDS011;6540;50.858;7.232;2022-12-18T00:26:50;7.43;;;4.03;;
12950;SDS011;6540;50.858;7.232;2022-12-18T00:29:15;4.00;;;2.80;;
12950;SDS011;6540;50.858;7.232;2022-12-18T00:31:41;5.20;;;3.80;;
12950;SDS011;6540;50.858;7.232;2022-12-18T00:34:08;4.23;;;3.83;;
12950;SDS011;6540;50.858;7.232;2022-12-18T00:36:35;5.50;;;4.97;;
12950;SDS011;6540;50.858;7.232;2022-12-18T00:39:02;7.93;;;5.83;;
12950;SDS011;6540;50.858;7.232;2022-12-18T00:41:29;8.00;;;5.53;;
12950;SDS011;6540;50.858;7.232;2022-12-18T00:44:13;6.00;;;3.80;;
12950;SDS011;6540;50.858;7.232;2022-12-18T00:46:42;12.03;;;4.43;;
12950;SDS011;6540;50.858;7.232;2022-12-18T00:49:08;7.53;;;4.93;;
12950;SDS011;6540;50.858;7.232;2022-12-18T00:51:34;10.13;;;6.60;;
12950;SDS011;6540;50.858;7.232;2022-12-18T00:54:02;13.97;;;4.87;;
12950;SDS011;6540;50.858;7.232;2022-12-18T00:56:27;3.70;;;3.37;;
12950;SDS011;6540;50.858;7.232;2022-12-18T00:58:53;7.73;;;4.63;;
12950;SDS011;6540;50.858;7.232;2022-12-18T01:01:18;11.13;;;6.37;;
12950;SDS011;6540;50.858;7.232;2022-12-18T01:03:43;10.17;;;5.53;;
12950;SDS011;6540;50.858;7.232;2022-12-18T01:06:10;12.60;;;6.97;;
12950;SDS011;6540;50.858;7.232;2022-12-18T01:08:38;7.97;;;5.87;;
12950;SDS011;6540;50.858;7.232;2022-12-18T01:11:07;10.17;;;5.93;;
12950;SDS011;6540;50.858;7.232;2022-12-18T01:13:34;9.20;;;4.63;;
12950;SDS011;6540;50.858;7.232;2022-12-18T01:16:00;5.90;;;5.30;;
12950;SDS011;6540;50.858;7.232;2022-12-18T01:18:25;4.27;;;3.37;;
12950;SDS011;6540;50.858;7.232;2022-12-18T01:20:50;11.10;;;3.97;;
12950;SDS011;6540;50.858;7.232;2022-12-18T01:23:16;7.67;;;4.47;;
12950;SDS011;6540;50.858;7.232;2022-12-18T01:25:41;10.27;;;5.50;;
12950;SDS011;6540;50.858;7.232;2022-12-18T01:28:06;11.70;;;7.03;;
12950;SDS011;6540;50.858;7.232;2022-12-18T01:30:32;9.67;;;5.60;;
12950;SDS011;6540;50.858;7.232;2022-12-18T01:32:57;6.40;;;5.67;;
12950;SDS011;6540;50.858;7.232;2022-12-18T01:35:22;5.43;;;4.23;;
12950;SDS011;6540;50.858;7.232;2022-12-18T01:37:48;8.57;;;4.83;;
12950;SDS011;6540;50.858;7.232;2022-12-18T01:40:13;4.27;;;3.90;;
12950;SDS011;6540;50.858;7.232;2022-12-18T01:42:38;5.63;;;4.23;;
12950;SDS011;6540;50.858;7.232;2022-12-18T01:50:08;8.00;;;5.83;;
12950;SDS011;6540;50.858;7.232;2022-12-18T01:52:43;4.60;;;3.10;;
12950;SDS011;6540;50.858;7.232;2022-12-18T01:55:16;6.77;;;4.57;;
12950;SDS011;6540;50.858;7.232;2022-12-18T01:57:43;5.60;;;4.30;;
12950;SDS011;6540;50.858;7.232;2022-12-18T02:00:14;4.73;;;4.33;;
12950;SDS011;6540;50.858;7.232;2022-12-18T02:02:41;4.13;;;3.47;;
12950;SDS011;6540;50.858;7.232;2022-12-18T02:05:09;7.47;;;5.03;;
12950;SDS011;6540;50.858;7.232;2022-12-18T02:07:45;6.27;;;4.47;;
12950;SDS011;6540;50.858;7.232;2022-12-18T02:10:21;9.17;;;6.03;;
12950;SDS011;6540;50.858;7.232;2022-12-18T02:24:41;9.47;;;4.37;;
12950;SDS011;6540;50.858;7.232;2022-12-18T02:27:09;3.83;;;3.53;;
12950;SDS011;6540;50.858;7.232;2022-12-18T02:32:24;2.60;;;2.40;;
12950;SDS011;6540;50.858;7.232;2022-12-18T02:34:52;7.67;;;4.73;;
12950;SDS011;6540;50.858;7.232;2022-12-18T02:37:20;7.40;;;4.70;;
12950;SDS011;6540;50.858;7.232;2022-12-18T02:39:47;8.73;;;4.40;;
12950;SDS011;6540;50.858;7.232;2022-12-18T02:42:14;11.50;;;6.37;;
12950;SDS011;6540;50.858;7.232;2022-12-18T02:44:48;9.33;;;5.23;;
12950;SDS011;6540;50.858;7.232;2022-12-18T02:47:16;5.73;;;3.73;;
12950;SDS011;6540;50.858;7.232;2022-12-18T03:00:28;6.80;;;4.37;;
12950;SDS011;6540;50.858;7.232;2022-12-18T03:03:10;11.77;;;5.33;;
12950;SDS011;6540;50.858;7.232;2022-12-18T03:06:06;7.00;;;2.87;;
12950;SDS011;6540;50.858;7.232;2022-12-18T03:08:48;7.80;;;4.27;;
12950;SDS011;6540;50.858;7.232;2022-12-18T03:11:17;7.43;;;4.77;;
12950;SDS011;6540;50.858;7.232;2022-12-18T03:14:03;4.53;;;3.67;;
12950;SDS011;6540;50.858;7.232;2022-12-18T03:16:31;8.00;;;4.33;;
12950;SDS011;6540;50.858;7.232;2022-12-18T03:19:01;2.00;;;1.37;;
12950;SDS011;6540;50.858;7.232;2022-12-18T03:21:39;5.60;;;3.77;;
12950;SDS011;6540;50.858;7.232;2022-12-18T03:24:07;8.07;;;4.57;;
12950;SDS011;6540;50.858;7.232;2022-12-18T03:26:35;8.40;;;4.50;;
12950;SDS011;6540;50.858;7.232;2022-12-18T03:29:05;3.07;;;2.77;;
12950;SDS011;6540;50.858;7.232;2022-12-18T03:31:36;11.90;;;4.37;;
12950;SDS011;6540;50.858;7.232;2022-12-18T03:34:08;5.03;;;3.60;;
12950;SDS011;6540;50.858;7.232;2022-12-18T03:36:38;3.57;;;3.27;;
12950;SDS011;6540;50.858;7.232;2022-12-18T03:39:03;8.40;;;3.80;;
12950;SDS011;6540;50.858;7.232;2022-12-18T03:41:51;8.07;;;4.13;;
12950;SDS011;6540;50.858;7.232;2022-12-18T03:52:48;7.87;;;3.63;;
12950;SDS011;6540;50.858;7.232;2022-12-18T03:55:19;7.53;;;5.00;;
12950;SDS011;6540;50.858;7.232;2022-12-18T03:57:45;4.13;;;3.57;;
12950;SDS011;6540;50.858;7.232;2022-12-18T04:00:14;7.27;;;4.63;;
12950;SDS011;6540;50.858;7.232;2022-12-18T04:02:47;4.83;;;4.27;;
12950;SDS011;6540;50.858;7.232;2022-12-18T04:05:16;11.90;;;6.00;;
12950;SDS011;6540;50.858;7.232;2022-12-18T04:07:42;5.27;;;4.20;;
12950;SDS011;6540;50.858;7.232;2022-12-18T04:10:09;7.40;;;3.63;;
12950;SDS011;6540;50.858;7.232;2022-12-18T04:12:37;2.53;;;2.33;;
12950;SDS011;6540;50.858;7.232;2022-12-18T04:15:02;6.63;;;4.10;;
12950;SDS011;6540;50.858;7.232;2022-12-18T04:17:28;4.87;;;3.57;;
12950;SDS011;6540;50.858;7.232;2022-12-18T04:19:53;2.90;;;2.50;;
12950;SDS011;6540;50.858;7.232;2022-12-18T04:22:18;1.97;;;1.87;;
12950;SDS011;6540;50.858;7.232;2022-12-18T04:24:44;6.37;;;3.87;;
12950;SDS011;6540;50.858;7.232;2022-12-18T04:27:09;3.60;;;2.73;;
12950;SDS011;6540;50.858;7.232;2022-12-18T04:29:34;13.07;;;4.17;;
12950;SDS011;6540;50.858;7.232;2022-12-18T04:32:00;9.73;;;4.37;;
12950;SDS011;6540;50.858;7.232;2022-12-18T04:34:25;4.20;;;3.07;;
12950;SDS011;6540;50.858;7.232;2022-12-18T04:36:50;6.70;;;3.57;;
12950;SDS011;6540;50.858;7.232;2022-12-18T04:39:16;3.83;;;3.43;;
12950;SDS011;6540;50.858;7.232;2022-12-18T04:41:43;7.73;;;4.10;;
12950;SDS011;6540;50.858;7.232;2022-12-18T04:44:08;6.70;;;3.43;;
12950;SDS011;6540;50.858;7.232;2022-12-18T04:46:33;4.40;;;2.97;;
12950;SDS011;6540;50.858;7.232;2022-12-18T04:48:59;4.53;;;4.10;;
12950;SDS011;6540;50.858;7.232;2022-12-18T04:51:24;3.70;;;2.27;;
12950;SDS011;6540;50.858;7.232;2022-12-18T04:53:50;2.77;;;2.60;;
12950;SDS011;6540;50.858;7.232;2022-12-18T04:56:15;6.27;;;3.83;;
12950;SDS011;6540;50.858;7.232;2022-12-18T04:58:41;4.70;;;3.47;;
12950;SDS011;6540;50.858;7.232;2022-12-18T05:01:09;3.93;;;3.37;;
12950;SDS011;6540;50.858;7.232;2022-12-18T05:03:35;3.37;;;2.87;;
12950;SDS011;6540;50.858;7.232;2022-12-18T05:06:01;4.90;;;3.50;;
12950;SDS011;6540;50.858;7.232;2022-12-18T05:08:26;5.10;;;3.43;;
12950;SDS011;6540;50.858;7.232;2022-12-18T05:10:59;4.33;;;3.30;;
12950;SDS011;6540;50.858;7.232;2022-12-18T05:13:29;5.30;;;2.87;;
12950;SDS011;6540;50.858;7.232;2022-12-18T05:15:54;2.30;;;2.20;;
12950;SDS011;6540;50.858;7.232;2022-12-18T05:18:21;3.07;;;2.47;;
12950;SDS011;6540;50.858;7.232;2022-12-18T05:20:47;2.50;;;2.40;;
12950;SDS011;6540;50.858;7.232;2022-12-18T05:23:13;2.93;;;2.70;;
12950;SDS011;6540;50.858;7.232;2022-12-18T05:25:39;4.43;;;3.90;;
12950;SDS011;6540;50.858;7.232;2022-12-18T05:28:04;2.97;;;2.77;;
12950;SDS011;6540;50.858;7.232;2022-12-18T05:30:29;1.40;;;1.40;;
12950;SDS011;6540;50.858;7.232;2022-12-18T05:32:55;2.87;;;2.67;;
12950;SDS011;6540;50.858;7.232;2022-12-18T05:35:20;9.73;;;3.50;;
12950;SDS011;6540;50.858;7.232;2022-12-18T05:37:45;3.17;;;2.97;;
12950;SDS011;6540;50.858;7.232;2022-12-18T05:40:11;2.60;;;2.50;;
12950;SDS011;6540;50.858;7.232;2022-12-18T05:42:37;5.10;;;3.20;;
12950;SDS011;6540;50.858;7.232;2022-12-18T05:45:03;6.57;;;3.43;;
12950;SDS011;6540;50.858;7.232;2022-12-18T05:47:30;4.00;;;3.47;;
12950;SDS011;6540;50.858;7.232;2022-12-18T05:49:55;1.57;;;1.53;;
12950;SDS011;6540;50.858;7.232;2022-12-18T05:52:21;4.30;;;3.47;;
12950;SDS011;6540;50.858;7.232;2022-12-18T05:54:46;6.00;;;4.87;;
12950;SDS011;6540;50.858;7.232;2022-12-18T05:57:11;2.83;;;1.43;;
12950;SDS011;6540;50.858;7.232;2022-12-18T05:59:37;2.60;;;2.50;;
12950;SDS011;6540;50.858;7.232;2022-12-18T06:02:02;4.50;;;3.80;;
12950;SDS011;6540;50.858;7.232;2022-12-18T06:04:27;2.80;;;2.47;;
12950;SDS011;6540;50.858;7.232;2022-12-18T06:06:53;6.53;;;3.23;;
12950;SDS011;6540;50.858;7.232;2022-12-18T06:09:19;1.90;;;1.80;;
12950;SDS011;6540;50.858;7.232;2022-12-18T06:11:44;7.80;;;4.33;;
12950;SDS011;6540;50.858;7.232;2022-12-18T06:14:10;6.03;;;4.70;;
12950;SDS011;6540;50.858;7.232;2022-12-18T06:16:35;4.03;;;3.27;;
12950;SDS011;6540;50.858;7.232;2022-12-18T06:19:01;5.60;;;3.33;;
12950;SDS011;6540;50.858;7.232;2022-12-18T06:21:29;9.17;;;5.30;;
12950;SDS011;6540;50.858;7.232;2022-12-18T06:23:55;5.13;;;3.33;;
12950;SDS011;6540;50.858;7.232;2022-12-18T06:26:21;4.87;;;3.80;;
12950;SDS011;6540;50.858;7.232;2022-12-18T06:28:46;2.23;;;2.07;;
12950;SDS011;6540;50.858;7.232;2022-12-18T06:31:12;5.27;;;3.53;;
12950;SDS011;6540;50.858;7.232;2022-12-18T06:33:37;4.70;;;2.93;;
12950;SDS011;6540;50.858;7.232;2022-12-18T06:36:07;3.80;;;2.67;;
12950;SDS011;6540;50.858;7.232;2022-12-18T06:38:38;7.17;;;4.20;;
12950;SDS011;6540;50.858;7.232;2022-12-18T06:41:08;3.90;;;3.57;;
12950;SDS011;6540;50.858;7.232;2022-12-18T06:43:44;9.73;;;4.47;;
12950;SDS011;6540;50.858;7.232;2022-12-18T06:46:10;9.17;;;4.87;;
12950;SDS011;6540;50.858;7.232;2022-12-18T06:48:36;5.23;;;4.67;;
12950;SDS011;6540;50.858;7.232;2022-12-18T06:51:01;6.53;;;3.43;;
12950;SDS011;6540;50.858;7.232;2022-12-18T06:53:27;5.07;;;3.60;;
12950;SDS011;6540;50.858;7.232;2022-12-18T06:55:59;6.90;;;4.33;;
12950;SDS011;6540;50.858;7.232;2022-12-18T06:58:29;7.00;;;3.40;;
12950;SDS011;6540;50.858;7.232;2022-12-18T07:00:59;4.77;;;3.33;;
12950;SDS011;6540;50.858;7.232;2022-12-18T07:03:25;3.03;;;2.13;;
12950;SDS011;6540;50.858;7.232;2022-12-18T07:05:51;5.10;;;2.83;;
12950;SDS011;6540;50.858;7.232;2022-12-18T07:08:16;2.73;;;2.50;;
12950;SDS011;6540;50.858;7.232;2022-12-18T07:10:42;6.30;;;4.27;;
12950;SDS011;6540;50.858;7.232;2022-12-18T07:13:08;9.10;;;4.03;;
12950;SDS011;6540;50.858;7.232;2022-12-18T07:15:33;2.67;;;2.53;;
12950;SDS011;6540;50.858;7.232;2022-12-18T07:17:59;2.80;;;2.50;;
12950;SDS011;6540;50.858;7.232;2022-12-18T07:20:24;4.50;;;3.57;;
12950;SDS011;6540;50.858;7.232;2022-12-18T07:22:49;8.60;;;4.57;;
12950;SDS011;6540;50.858;7.232;2022-12-18T07:25:15;5.07;;;3.20;;
12950;SDS011;6540;50.858;7.232;2022-12-18T07:27:40;7.90;;;3.60;;
12950;SDS011;6540;50.858;7.232;2022-12-18T07:30:05;7.37;;;4.77;;
12950;SDS011;6540;50.858;7.232;2022-12-18T07:32:31;7.50;;;4.17;;
12950;SDS011;6540;50.858;7.232;2022-12-18T07:34:57;5.47;;;4.07;;
12950;SDS011;6540;50.858;7.232;2022-12-18T07:37:22;12.17;;;5.47;;
12950;SDS011;6540;50.858;7.232;2022-12-18T07:39:47;8.73;;;3.67;;
12950;SDS011;6540;50.858;7.232;2022-12-18T07:42:13;10.87;;;3.60;;
12950;SDS011;6540;50.858;7.232;2022-12-18T07:44:57;2.30;;;2.17;;
12950;SDS011;6540;50.858;7.232;2022-12-18T07:47:26;9.00;;;3.53;;
12950;SDS011;6540;50.858;7.232;2022-12-18T07:49:53;7.07;;;4.27;;
12950;SDS011;6540;50.858;7.232;2022-12-18T07:52:18;3.23;;;3.03;;
12950;SDS011;6540;50.858;7.232;2022-12-18T07:54:44;3.20;;;3.00;;
12950;SDS011;6540;50.858;7.232;2022-12-18T07:57:09;8.93;;;3.70;;
12950;SDS011;6540;50.858;7.232;2022-12-18T07:59:35;5.40;;;4.90;;
12950;SDS011;6540;50.858;7.232;2022-12-18T08:02:00;8.53;;;4.97;;
12950;SDS011;6540;50.858;7.232;2022-12-18T08:04:26;5.20;;;3.53;;
12950;SDS011;6540;50.858;7.232;2022-12-18T08:06:51;4.47;;;4.07;;
12950;SDS011;6540;50.858;7.232;2022-12-18T08:09:16;6.83;;;4.27;;
12950;SDS011;6540;50.858;7.232;2022-12-18T08:11:42;15.00;;;3.17;;
12950;SDS011;6540;50.858;7.232;2022-12-18T08:14:07;3.83;;;3.30;;
12950;SDS011;6540;50.858;7.232;2022-12-18T08:16:33;4.87;;;1.90;;
12950;SDS011;6540;50.858;7.232;2022-12-18T08:18:59;3.37;;;2.13;;
12950;SDS011;6540;50.858;7.232;2022-12-18T08:21:26;1.77;;;1.67;;
12950;SDS011;6540;50.858;7.232;2022-12-18T08:23:54;2.73;;;2.53;;
12950;SDS011;6540;50.858;7.232;2022-12-18T08:26:21;4.27;;;3.07;;
12950;SDS011;6540;50.858;7.232;2022-12-18T08:28:47;6.60;;;4.43;;
12950;SDS011;6540;50.858;7.232;2022-12-18T08:31:12;9.03;;;4.30;;
12950;SDS011;6540;50.858;7.232;2022-12-18T08:33:38;3.70;;;3.40;;
12950;SDS011;6540;50.858;7.232;2022-12-18T08:36:04;4.07;;;2.87;;
12950;SDS011;6540;50.858;7.232;2022-12-18T08:38:30;5.70;;;4.23;;
12950;SDS011;6540;50.858;7.232;2022-12-18T08:41:00;7.30;;;4.90;;
12950;SDS011;6540;50.858;7.232;2022-12-18T08:43:30;2.40;;;2.17;;
12950;SDS011;6540;50.858;7.232;2022-12-18T08:46:14;7.73;;;3.57;;
12950;SDS011;6540;50.858;7.232;2022-12-18T08:48:41;15.00;;;6.33;;
12950;SDS011;6540;50.858;7.232;2022-12-18T08:51:06;4.20;;;3.90;;
12950;SDS011;6540;50.858;7.232;2022-12-18T08:53:34;5.23;;;4.20;;
12950;SDS011;6540;50.858;7.232;2022-12-18T08:56:00;7.77;;;5.50;;
12950;SDS011;6540;50.858;7.232;2022-12-18T08:58:25;10.90;;;5.57;;
12950;SDS011;6540;50.858;7.232;2022-12-18T09:00:50;16.37;;;5.73;;
12950;SDS011;6540;50.858;7.232;2022-12-18T09:03:16;4.30;;;3.40;;
12950;SDS011;6540;50.858;7.232;2022-12-18T09:05:43;5.60;;;3.93;;
12950;SDS011;6540;50.858;7.232;2022-12-18T09:08:11;10.13;;;5.83;;
12950;SDS011;6540;50.858;7.232;2022-12-18T09:10:43;5.67;;;4.53;;
12950;SDS011;6540;50.858;7.232;2022-12-18T09:13:10;9.30;;;6.27;;
12950;SDS011;6540;50.858;7.232;2022-12-18T09:15:55;4.10;;;3.80;;
12950;SDS011;6540;50.858;7.232;2022-12-18T09:18:21;10.30;;;4.80;;
12950;SDS011;6540;50.858;7.232;2022-12-18T09:20:48;11.27;;;5.07;;
12950;SDS011;6540;50.858;7.232;2022-12-18T09:23:16;13.50;;;8.27;;
12950;SDS011;6540;50.858;7.232;2022-12-18T09:25:42;8.03;;;5.70;;
12950;SDS011;6540;50.858;7.232;2022-12-18T09:28:11;9.60;;;5.90;;
12950;SDS011;6540;50.858;7.232;2022-12-18T09:30:39;10.10;;;4.50;;
12950;SDS011;6540;50.858;7.232;2022-12-18T09:33:05;6.80;;;4.27;;
12950;SDS011;6540;50.858;7.232;2022-12-18T09:35:31;7.80;;;5.37;;
12950;SDS011;6540;50.858;7.232;2022-12-18T09:37:56;7.30;;;5.17;;
12950;SDS011;6540;50.858;7.232;2022-12-18T09:40:23;7.97;;;5.57;;
12950;SDS011;6540;50.858;7.232;2022-12-18T09:43:00;8.77;;;6.03;;
12950;SDS011;6540;50.858;7.232;2022-12-18T09:45:30;9.63;;;5.47;;
12950;SDS011;6540;50.858;7.232;2022-12-18T09:48:05;6.53;;;4.63;;
12950;SDS011;6540;50.858;7.232;2022-12-18T09:50:57;10.53;;;7.27;;
12950;SDS011;6540;50.858;7.232;2022-12-18T09:53:28;11.63;;;5.73;;
12950;SDS011;6540;50.858;7.232;2022-12-18T09:55:57;11.27;;;5.93;;
12950;SDS011;6540;50.858;7.232;2022-12-18T09:58:36;11.27;;;5.70;;
12950;SDS011;6540;50.858;7.232;2022-12-18T10:01:13;10.53;;;6.17;;
12950;SDS011;6540;50.858;7.232;2022-12-18T10:03:41;9.83;;;5.40;;
12950;SDS011;6540;50.858;7.232;2022-12-18T10:06:08;8.57;;;5.60;;
12950;SDS011;6540;50.858;7.232;2022-12-18T10:08:49;11.23;;;5.60;;
12950;SDS011;6540;50.858;7.232;2022-12-18T10:17:12;8.57;;;4.90;;
12950;SDS011;6540;50.858;7.232;2022-12-18T10:27:25;8.30;;;6.10;;
12950;SDS011;6540;50.858;7.232;2022-12-18T10:29:52;12.00;;;5.90;;
12950;SDS011;6540;50.858;7.232;2022-12-18T10:32:19;9.93;;;6.10;;
12950;SDS011;6540;50.858;7.232;2022-12-18T10:34:54;7.63;;;5.60;;
12950;SDS011;6540;50.858;7.232;2022-12-18T10:37:22;11.03;;;6.47;;
12950;SDS011;6540;50.858;7.232;2022-12-18T10:40:14;9.90;;;5.80;;
12950;SDS011;6540;50.858;7.232;2022-12-18T10:42:41;10.17;;;5.97;;
12950;SDS011;6540;50.858;7.232;2022-12-18T10:47:45;9.40;;;5.50;;
12950;SDS011;6540;50.858;7.232;2022-12-18T10:50:47;10.33;;;6.07;;
12950;SDS011;6540;50.858;7.232;2022-12-18T10:53:04;11.20;;;6.67;;
12950;SDS011;6540;50.858;7.232;2022-12-18T10:55:34;11.60;;;6.27;;
12950;SDS011;6540;50.858;7.232;2022-12-18T11:00:47;7.95;;;4.00;;
12950;SDS011;6540;50.858;7.232;2022-12-18T11:03:30;8.80;;;5.40;;
12950;SDS011;6540;50.858;7.232;2022-12-18T11:06:02;8.50;;;4.97;;
12950;SDS011;6540;50.858;7.232;2022-12-18T11:08:32;11.30;;;6.07;;
12950;SDS011;6540;50.858;7.232;2022-12-18T11:10:57;5.90;;;3.93;;
12950;SDS011;6540;50.858;7.232;2022-12-18T11:13:24;9.43;;;5.73;;
12950;SDS011;6540;50.858;7.232;2022-12-18T11:15:51;8.37;;;5.30;;
12950;SDS011;6540;50.858;7.232;2022-12-18T11:18:30;5.67;;;3.67;;
12950;SDS011;6540;50.858;7.232;2022-12-18T11:21:05;8.00;;;5.40;;
12950;SDS011;6540;50.858;7.232;2022-12-18T11:23:33;12.73;;;5.60;;
12950;SDS011;6540;50.858;7.232;2022-12-18T11:26:00;11.63;;;5.57;;
12950;SDS011;6540;50.858;7.232;2022-12-18T11:28:29;8.07;;;4.53;;
12950;SDS011;6540;50.858;7.232;2022-12-18T11:31:17;5.03;;;3.60;;
12950;SDS011;6540;50.858;7.232;2022-12-18T11:36:39;10.80;;;3.63;;
12950;SDS011;6540;50.858;7.232;2022-12-18T11:39:18;8.97;;;4.50;;
12950;SDS011;6540;50.858;7.232;2022-12-18T11:41:49;5.80;;;3.27;;
12950;SDS011;6540;50.858;7.232;2022-12-18T11:47:23;6.03;;;4.03;;
12950;SDS011;6540;50.858;7.232;2022-12-18T11:49:56;6.30;;;4.47;;
12950;SDS011;6540;50.858;7.232;2022-12-18T11:52:39;9.80;;;6.03;;
12950;SDS011;6540;50.858;7.232;2022-12-18T14:02:35;16.73;;;8.23;;
12950;SDS011;6540;50.858;7.232;2022-12-18T14:05:00;8.97;;;6.33;;
12950;SDS011;6540;50.858;7.232;2022-12-18T14:07:26;6.30;;;4.27;;
12950;SDS011;6540;50.858;7.232;2022-12-18T14:09:57;16.20;;;8.60;;
12950;SDS011;6540;50.858;7.232;2022-12-18T14:12:26;17.57;;;9.13;;
12950;SDS011;6540;50.858;7.232;2022-12-18T14:17:44;22.00;;;9.60;;
12950;SDS011;6540;50.858;7.232;2022-12-18T14:20:13;13.00;;;6.17;;
12950;SDS011;6540;50.858;7.232;2022-12-18T14:22:42;62.63;;;13.30;;
12950;SDS011;6540;50.858;7.232;2022-12-18T14:27:50;4.60;;;3.80;;
12950;SDS011;6540;50.858;7.232;2022-12-18T14:33:09;24.27;;;10.27;;
12950;SDS011;6540;50.858;7.232;2022-12-18T14:35:37;14.83;;;8.67;;
12950;SDS011;6540;50.858;7.232;2022-12-18T14:40:51;13.33;;;8.80;;
12950;SDS011;6540;50.858;7.232;2022-12-18T14:43:19;12.20;;;7.50;;
12950;SDS011;6540;50.858;7.232;2022-12-18T14:45:48;16.33;;;8.40;;
12950;SDS011;6540;50.858;7.232;2022-12-18T14:51:05;11.00;;;6.30;;
12950;SDS011;6540;50.858;7.232;2022-12-18T14:53:48;13.27;;;7.40;;
12950;SDS011;6540;50.858;7.232;2022-12-18T14:56:25;15.97;;;8.73;;
12950;SDS011;6540;50.858;7.232;2022-12-18T14:58:56;20.90;;;10.43;;
12950;SDS011;6540;50.858;7.232;2022-12-18T15:01:30;18.83;;;8.00;;
12950;SDS011;6540;50.858;7.232;2022-12-18T15:04:00;19.80;;;9.53;;
12950;SDS011;6540;50.858;7.232;2022-12-18T15:06:36;13.47;;;8.70;;
12950;SDS011;6540;50.858;7.232;2022-12-18T15:09:22;18.17;;;9.97;;
12950;SDS011;6540;50.858;7.232;2022-12-18T15:11:49;19.17;;;9.33;;
12950;SDS011;6540;50.858;7.232;2022-12-18T15:14:23;20.23;;;10.57;;
12950;SDS011;6540;50.858;7.232;2022-12-18T15:16:56;18.07;;;8.10;;
12950;SDS011;6540;50.858;7.232;2022-12-18T15:19:45;20.80;;;10.87;;
12950;SDS011;6540;50.858;7.232;2022-12-18T15:25:27;18.17;;;8.73;;
12950;SDS011;6540;50.858;7.232;2022-12-18T15:27:58;15.10;;;8.07;;
12950;SDS011;6540;50.858;7.232;2022-12-18T15:30:24;12.43;;;7.03;;
12950;SDS011;6540;50.858;7.232;2022-12-18T15:32:51;16.07;;;9.90;;
12950;SDS011;6540;50.858;7.232;2022-12-18T15:35:24;21.00;;;10.20;;
12950;SDS011;6540;50.858;7.232;2022-12-18T15:37:50;14.93;;;7.50;;
12950;SDS011;6540;50.858;7.232;2022-12-18T15:40:18;18.80;;;9.60;;
12950;SDS011;6540;50.858;7.232;2022-12-18T15:42:45;17.40;;;8.67;;
12950;SDS011;6540;50.858;7.232;2022-12-18T15:45:31;17.87;;;10.37;;
12950;SDS011;6540;50.858;7.232;2022-12-18T15:47:56;19.73;;;9.87;;
12950;SDS011;6540;50.858;7.232;2022-12-18T15:50:22;20.83;;;10.40;;
12950;SDS011;6540;50.858;7.232;2022-12-18T15:52:48;14.00;;;8.40;;
12950;SDS011;6540;50.858;7.232;2022-12-18T15:55:20;20.97;;;9.57;;
12950;SDS011;6540;50.858;7.232;2022-12-18T15:58:07;10.23;;;5.73;;
12950;SDS011;6540;50.858;7.232;2022-12-18T16:00:34;20.70;;;10.33;;
12950;SDS011;6540;50.858;7.232;2022-12-18T16:03:00;19.87;;;8.60;;
12950;SDS011;6540;50.858;7.232;2022-12-18T16:05:26;13.63;;;7.03;;
12950;SDS011;6540;50.858;7.232;2022-12-18T16:07:54;16.23;;;8.80;;
12950;SDS011;6540;50.858;7.232;2022-12-18T16:10:20;24.67;;;14.90;;
12950;SDS011;6540;50.858;7.232;2022-12-18T16:12:46;20.30;;;10.90;;
12950;SDS011;6540;50.858;7.232;2022-12-18T16:15:15;23.20;;;12.30;;
12950;SDS011;6540;50.858;7.232;2022-12-18T16:17:41;24.20;;;12.67;;
12950;SDS011;6540;50.858;7.232;2022-12-18T16:20:17;20.83;;;11.17;;
12950;SDS011;6540;50.858;7.232;2022-12-18T16:22:46;19.23;;;10.73;;
12950;SDS011;6540;50.858;7.232;2022-12-18T16:25:22;21.63;;;9.77;;
12950;SDS011;6540;50.858;7.232;2022-12-18T16:27:50;19.13;;;9.53;;
12950;SDS011;6540;50.858;7.232;2022-12-18T16:30:21;23.33;;;11.13;;
12950;SDS011;6540;50.858;7.232;2022-12-18T16:32:49;20.33;;;10.53;;
12950;SDS011;6540;50.858;7.232;2022-12-18T16:35:15;21.73;;;10.37;;
12950;SDS011;6540;50.858;7.232;2022-12-18T16:37:41;21.67;;;9.90;;
12950;SDS011;6540;50.858;7.232;2022-12-18T16:40:09;10.10;;;5.03;;
12950;SDS011;6540;50.858;7.232;2022-12-18T16:42:40;18.77;;;9.30;;
12950;SDS011;6540;50.858;7.232;2022-12-18T16:45:08;25.10;;;12.77;;
12950;SDS011;6540;50.858;7.232;2022-12-18T16:47:35;29.67;;;14.00;;
12950;SDS011;6540;50.858;7.232;2022-12-18T16:50:01;20.50;;;10.27;;
12950;SDS011;6540;50.858;7.232;2022-12-18T16:52:27;26.93;;;11.23;;
12950;SDS011;6540;50.858;7.232;2022-12-18T16:54:54;20.33;;;11.97;;
12950;SDS011;6540;50.858;7.232;2022-12-18T16:57:19;19.33;;;9.30;;
12950;SDS011;6540;50.858;7.232;2022-12-18T16:59:45;18.30;;;9.30;;
12950;SDS011;6540;50.858;7.232;2022-12-18T17:02:21;25.80;;;12.00;;
12950;SDS011;6540;50.858;7.232;2022-12-18T17:04:49;17.77;;;9.33;;
12950;SDS011;6540;50.858;7.232;2022-12-18T17:07:17;20.70;;;10.27;;
12950;SDS011;6540;50.858;7.232;2022-12-18T17:09:43;15.60;;;9.00;;
12950;SDS011;6540;50.858;7.232;2022-12-18T17:12:08;26.23;;;10.87;;
12950;SDS011;6540;50.858;7.232;2022-12-18T17:14:34;20.47;;;9.83;;
12950;SDS011;6540;50.858;7.232;2022-12-18T17:17:00;13.93;;;8.07;;
12950;SDS011;6540;50.858;7.232;2022-12-18T17:19:28;19.30;;;11.90;;
12950;SDS011;6540;50.858;7.232;2022-12-18T17:21:56;24.50;;;11.53;;
12950;SDS011;6540;50.858;7.232;2022-12-18T17:24:23;8.60;;;5.37;;
12950;SDS011;6540;50.858;7.232;2022-12-18T17:26:48;22.30;;;12.30;;
12950;SDS011;6540;50.858;7.232;2022-12-18T17:29:15;23.70;;;11.77;;
12950;SDS011;6540;50.858;7.232;2022-12-18T17:31:42;14.57;;;6.40;;
12950;SDS011;6540;50.858;7.232;2022-12-18T17:34:08;22.17;;;10.30;;
12950;SDS011;6540;50.858;7.232;2022-12-18T17:36:35;18.43;;;8.57;;
12950;SDS011;6540;50.858;7.232;2022-12-18T17:39:01;25.00;;;11.53;;
12950;SDS011;6540;50.858;7.232;2022-12-18T17:41:27;25.57;;;11.60;;
12950;SDS011;6540;50.858;7.232;2022-12-18T17:43:54;11.53;;;6.67;;
12950;SDS011;6540;50.858;7.232;2022-12-18T17:46:28;28.63;;;13.30;;
12950;SDS011;6540;50.858;7.232;2022-12-18T17:48:55;18.50;;;10.57;;
12950;SDS011;6540;50.858;7.232;2022-12-18T17:51:25;24.43;;;10.27;;
12950;SDS011;6540;50.858;7.232;2022-12-18T17:53:51;19.07;;;7.27;;
12950;SDS011;6540;50.858;7.232;2022-12-18T17:56:18;18.10;;;8.90;;
12950;SDS011;6540;50.858;7.232;2022-12-18T17:58:44;8.07;;;5.47;;
12950;SDS011;6540;50.858;7.232;2022-12-18T18:01:12;21.37;;;11.57;;
12950;SDS011;6540;50.858;7.232;2022-12-18T18:03:39;25.33;;;13.07;;
12950;SDS011;6540;50.858;7.232;2022-12-18T18:06:05;16.13;;;8.27;;
12950;SDS011;6540;50.858;7.232;2022-12-18T18:08:32;25.40;;;11.77;;
12950;SDS011;6540;50.858;7.232;2022-12-18T18:11:01;21.83;;;10.13;;
12950;SDS011;6540;50.858;7.232;2022-12-18T18:13:50;11.97;;;5.80;;
12950;SDS011;6540;50.858;7.232;2022-12-18T18:16:25;23.73;;;11.53;;
12950;SDS011;6540;50.858;7.232;2022-12-18T18:18:58;19.73;;;8.20;;
12950;SDS011;6540;50.858;7.232;2022-12-18T18:21:26;29.00;;;12.67;;
12950;SDS011;6540;50.858;7.232;2022-12-18T18:23:52;24.07;;;11.07;;
12950;SDS011;6540;50.858;7.232;2022-12-18T18:26:17;19.60;;;9.57;;
12950;SDS011;6540;50.858;7.232;2022-12-18T18:28:42;16.27;;;7.83;;
12950;SDS011;6540;50.858;7.232;2022-12-18T18:31:08;18.10;;;7.03;;